Time;durP1;ratioP1;P1;durP2;ratioP2;P2;SDS_P1;SDS_P2;PMS_P1;PMS_P2;Temp;Humidity;BMP_temperature;BMP_pressure;BME280_temperature;BME280_humidity;BME280_pressure;Samples;Min_cycle;Max_cycle;Signal;HPM_P1;HPM_P2
2023/10/20 00:02:14;;;;;;;;;;;;;;;;;;5052649;28;19940;-75
2023/10/20 00:04:41;;;;;;;;;;;;;;;;;;5052646;28;20375;-76
2023/10/20 00:07:08;;;;;;;;;;;;;;;;;;5051371;28;20379;-75
2023/10/20 00:09:35;;;;;;;;;;;;;;;;;;5053548;28;19924;-76
2023/10/20 00:12:04;;;;;;;;;;;;;;;;;;5056273;28;20387;-76
2023/10/20 00:14:31;;;;;;;;;;;;;;;;;;5056851;28;19998;-76
2023/10/20 00:16:58;;;;;;;;;;;;;;;;;;5054864;28;20453;-75
2023/10/20 00:19:25;;;;;;;;;;;;;;;;;;5055434;28;20326;-76
2023/10/20 00:21:52;;;;;;;;;;;;;;;;;;5054827;28;19924;-76
2023/10/20 00:24:19;;;;;;;;;;;;;;;;;;5056286;28;20399;-75
2023/10/20 00:26:46;;;;;;;;;;;;;;;;;;5059080;28;20452;-76
2023/10/20 00:29:14;;;;;;;;;;;;;;;;;;5068478;28;19924;-76
2023/10/20 00:31:42;;;;;;;;;;;;;;;;;;5056237;28;20593;-76
2023/10/20 00:34:09;;;;;;;;;;;;;;;;;;5055951;28;19925;-76
2023/10/20 00:36:36;;;;;;;;;;;;;;;;;;5054742;28;20019;-75
2023/10/20 00:39:03;;;;;;;;;;;;;;;;;;5056167;28;19979;-75
2023/10/20 00:41:31;;;;;;;;;;;;;;;;;;5055478;28;19971;-75
2023/10/20 00:43:58;;;;;;;;;;;;;;;;;;5054898;28;20379;-75
2023/10/20 00:46:25;;;;;;;;;;;;;;;;;;5054288;28;19951;-76
2023/10/20 00:48:52;;;;;;;;;;;;;;;;;;5054720;28;19932;-76
2023/10/20 00:51:19;;;;;;;;;;;;;;;;;;5054643;28;19926;-76
2023/10/20 00:53:47;;;;;;;;;;;;;;;;;;5055620;28;20310;-75
2023/10/20 00:56:14;;;;;;;;;;;;;;;;;;5055818;28;19978;-75
2023/10/20 00:58:41;;;;;;;;;;;;;;;;;;5055983;28;19929;-76
2023/10/20 01:01:08;;;;;;;;;;;;;;;;;;5061468;28;20391;-75
2023/10/20 01:03:35;;;;;;;;;;;;;;;;;;5064874;28;19971;-75
2023/10/20 01:06:02;;;;;;;;;;;;;;;;;;5054266;28;19925;-76
2023/10/20 01:08:30;;;;;;;;;;;;;;;;;;5055128;28;19925;-77
2023/10/20 01:10:57;;;;;;;;;;;;;;;;;;5055307;28;19968;-76
2023/10/20 01:13:25;;;;;;;;;;;;;;;;;;5055693;28;19932;-76
2023/10/20 01:15:53;;;;;;;;;;;;;;;;;;5055334;28;19929;-76
2023/10/20 01:18:20;;;;;;;;;;;;;;;;;;5055784;28;19924;-76
2023/10/20 01:20:47;;;;;;;;;;;;;;;;;;5054354;28;19925;-76
2023/10/20 01:23:14;;;;;;;;;;;;;;;;;;5054078;28;19924;-77
2023/10/20 01:25:41;;;;;;;;;;;;;;;;;;5055239;28;19925;-76
2023/10/20 01:28:09;;;;;;;;;;;;;;;;;;5055725;28;19925;-76
2023/10/20 01:30:36;;;;;;;;;;;;;;;;;;5049707;28;19924;-77
2023/10/20 01:33:03;;;;;;;;;;;;;;;;;;5055948;28;19924;-76
2023/10/20 01:35:30;;;;;;;;;;;;;;;;;;5060750;28;19931;-77
2023/10/20 01:37:57;;;;;;;;;;;;;;;;;;5055439;28;19929;-77
2023/10/20 01:40:27;;;;;;;;;;;;;;;;;;5055443;28;19925;-77
2023/10/20 01:42:54;;;;;;;;;;;;;;;;;;5056000;28;20037;-77
2023/10/20 01:45:21;;;;;;;;;;;;;;;;;;5055102;28;19925;-76
2023/10/20 01:47:48;;;;;;;;;;;;;;;;;;5055356;28;19979;-76
2023/10/20 01:50:15;;;;;;;;;;;;;;;;;;5054011;28;19925;-76
2023/10/20 01:52:42;;;;;;;;;;;;;;;;;;5060154;28;19931;-77
2023/10/20 01:55:09;;;;;;;;;;;;;;;;;;5057137;28;19925;-78
2023/10/20 01:57:36;;;;;;;;;;;;;;;;;;5056964;28;19947;-79
2023/10/20 02:00:04;;;;;;;;;;;;;;;;;;5054782;28;19925;-78
2023/10/20 02:02:31;;;;;;;;;;;;;;;;;;5056018;28;19944;-78
2023/10/20 02:04:58;;;;;;;;;;;;;;;;;;5055161;28;19925;-79
2023/10/20 02:07:25;;;;;;;;;;;;;;;;;;5057913;28;19955;-79
2023/10/20 02:09:54;;;;;;;;;;;;;;;;;;5063770;28;19925;-79
2023/10/20 02:12:22;;;;;;;;;;;;;;;;;;5057430;28;19929;-78
2023/10/20 02:14:49;;;;;;;;;;;;;;;;;;5056625;28;19975;-78
2023/10/20 02:17:16;;;;;;;;;;;;;;;;;;5057231;28;19974;-79
2023/10/20 02:19:43;;;;;;;;;;;;;;;;;;5054882;28;19979;-78
2023/10/20 02:22:10;;;;;;;;;;;;;;;;;;5056226;28;19932;-77
2023/10/20 02:24:37;;;;;;;;;;;;;;;;;;5055921;28;19924;-78
2023/10/20 02:27:04;;;;;;;;;;;;;;;;;;5069128;28;19925;-79
2023/10/20 02:29:33;;;;;;;;;;;;;;;;;;5055156;28;19929;-77
2023/10/20 02:32:00;;;;;;;;;;;;;;;;;;5055922;28;20031;-77
2023/10/20 02:34:27;;;;;;;;;;;;;;;;;;5052614;28;20402;-77
2023/10/20 02:36:54;;;;;;;;;;;;;;;;;;5053337;28;20046;-77
2023/10/20 02:39:21;;;;;;;;;;;;;;;;;;5053199;28;19959;-76
2023/10/20 02:41:48;;;;;;;;;;;;;;;;;;5054998;28;20432;-75
2023/10/20 02:44:16;;;;;;;;;;;;;;;;;;5054618;28;20410;-75
2023/10/20 02:46:43;;;;;;;;;;;;;;;;;;5053466;28;20321;-77
2023/10/20 02:49:10;;;;;;;;;;;;;;;;;;5049813;28;19932;-76
2023/10/20 02:51:37;;;;;;;;;;;;;;;;;;5052321;28;20346;-75
2023/10/20 02:54:04;;;;;;;;;;;;;;;;;;5052944;28;19979;-75
2023/10/20 02:56:31;;;;;;;;;;;;;;;;;;5053524;28;19925;-75
2023/10/20 02:58:58;;;;;;;;;;;;;;;;;;5056684;28;19924;-75
2023/10/20 03:01:26;;;;;;;;;;;;;;;;;;5053928;28;19924;-75
2023/10/20 03:03:53;;;;;;;;;;;;;;;;;;5051335;28;20023;-75
2023/10/20 03:06:22;;;;;;;;;;;;;;;;;;5053023;28;19925;-76
2023/10/20 03:08:50;;;;;;;;;;;;;;;;;;5052988;28;19928;-75
2023/10/20 03:11:17;;;;;;;;;;;;;;;;;;5053229;28;19971;-75
2023/10/20 03:13:44;;;;;;;;;;;;;;;;;;5053088;28;20341;-77
2023/10/20 03:16:11;;;;;;;;;;;;;;;;;;5054568;28;19971;-76
2023/10/20 03:18:39;;;;;;;;;;;;;;;;;;5063808;28;20387;-76
2023/10/20 03:21:07;;;;;;;;;;;;;;;;;;5052684;28;19978;-76
2023/10/20 03:23:34;;;;;;;;;;;;;;;;;;5053349;28;20019;-74
2023/10/20 03:26:01;;;;;;;;;;;;;;;;;;5053467;28;19937;-74
2023/10/20 03:28:28;;;;;;;;;;;;;;;;;;5052462;28;19924;-75
2023/10/20 03:30:55;;;;;;;;;;;;;;;;;;5052924;28;19932;-75
2023/10/20 03:33:22;;;;;;;;;;;;;;;;;;5052749;28;19971;-77
2023/10/20 03:35:49;;;;;;;;;;;;;;;;;;5051484;28;20350;-76
2023/10/20 03:38:17;;;;;;;;;;;;;;;;;;5052839;28;20027;-76
2023/10/20 03:40:46;;;;;;;;;;;;;;;;;;5053168;28;20337;-76
2023/10/20 03:43:13;;;;;;;;;;;;;;;;;;5053281;28;19982;-75
2023/10/20 03:45:48;;;;;;;;;;;;;;;;;;5052145;28;20457;-76
2023/10/20 03:48:14;;;;;;;;;;;;;;;;;;5051051;28;20068;-74
2023/10/20 03:50:42;;;;;;;;;;;;;;;;;;5055655;28;19925;-76
2023/10/20 03:53:11;;;;;;;;;;;;;;;;;;5052863;28;20379;-75
2023/10/20 03:55:40;;;;;;;;;;;;;;;;;;5052714;28;20453;-75
2023/10/20 03:58:07;;;;;;;;;;;;;;;;;;5052631;28;19925;-76
2023/10/20 04:00:37;;;;;;;;;;;;;;;;;;5052393;28;20002;-75
2023/10/20 04:03:04;;;;;;;;;;;;;;;;;;5049990;28;19928;-75
2023/10/20 04:05:31;;;;;;;;;;;;;;;;;;5053087;28;19933;-75
2023/10/20 04:07:58;;;;;;;;;;;;;;;;;;5057709;28;20011;-76
2023/10/20 04:10:25;;;;;;;;;;;;;;;;;;5055420;28;19929;-75
2023/10/20 04:12:52;;;;;;;;;;;;;;;;;;5052593;28;19970;-76
2023/10/20 04:15:25;;;;;;;;;;;;;;;;;;5053004;28;19924;-76
2023/10/20 04:17:52;;;;;;;;;;;;;;;;;;5051897;28;19931;-76
2023/10/20 04:20:20;;;;;;;;;;;;;;;;;;5053387;28;20269;-76
2023/10/20 04:22:49;;;;;;;;;;;;;;;;;;5053750;28;19979;-76
2023/10/20 04:25:16;;;;;;;;;;;;;;;;;;5054522;28;19956;-77
2023/10/20 04:27:49;;;;;;;;;;;;;;;;;;5053690;28;19956;-76
2023/10/20 04:58:01;;;;;;;;;;;;;;;;;;5015753;28;19948;-80
2023/10/20 05:00:37;;;;;;;;;;;;;;;;;;5057025;28;19932;-79
2023/10/20 05:05:58;;;;;;;;;;;;;;;;;;5054966;28;19971;-76
2023/10/20 05:08:25;;;;;;;;;;;;;;;;;;5055067;28;19931;-77
2023/10/20 05:10:54;;;;;;;;;;;;;;;;;;5055949;28;19947;-76
2023/10/20 05:13:22;;;;;;;;;;;;;;;;;;5055394;28;19974;-71
2023/10/20 05:15:50;;;;;;;;;;;;;;;;;;5057952;28;20070;-71
2023/10/20 05:18:17;;;;;;;;;;;;;;;;;;5054975;28;19924;-71
2023/10/20 05:20:45;;;;;;;;;;;;;;;;;;5053426;28;19925;-71
2023/10/20 05:23:14;;;;;;;;;;;;;;;;;;5048534;28;19951;-71
2023/10/20 05:25:41;;;;;;;;;;;;;;;;;;5051618;28;19933;-71
2023/10/20 05:28:08;;;;;;;;;;;;;;;;;;5051342;28;20538;-71
2023/10/20 05:30:35;;;;;;;;;;;;;;;;;;5054460;28;20283;-70
2023/10/20 05:33:02;;;;;;;;;;;;;;;;;;5052863;28;20322;-71
2023/10/20 05:35:29;;;;;;;;;;;;;;;;;;5053780;28;19985;-71
2023/10/20 05:37:56;;;;;;;;;;;;;;;;;;5051749;28;19929;-71
2023/10/20 05:40:24;;;;;;;;;;;;;;;;;;5055596;28;19932;-71
2023/10/20 05:42:51;;;;;;;;;;;;;;;;;;5052533;28;20371;-72
2023/10/20 05:45:20;;;;;;;;;;;;;;;;;;5052438;28;19971;-71
2023/10/20 05:47:47;;;;;;;;;;;;;;;;;;5043275;28;20387;-72
2023/10/20 05:50:15;;;;;;;;;;;;;;;;;;5060461;28;19978;-73
2023/10/20 05:52:42;;;;;;;;;;;;;;;;;;5055979;28;19925;-73
2023/10/20 05:55:09;;;;;;;;;;;;;;;;;;5049545;28;20314;-73
2023/10/20 05:57:36;;;;;;;;;;;;;;;;;;5051514;28;20011;-74
2023/10/20 06:00:04;;;;;;;;;;;;;;;;;;5053924;28;19925;-74
2023/10/20 06:02:32;;;;;;;;;;;;;;;;;;5034100;28;19925;-71
2023/10/20 06:04:59;;;;;;;;;;;;;;;;;;5043111;28;20256;-74
2023/10/20 06:07:27;;;;;;;;;;;;;;;;;;5063839;28;19924;-75
2023/10/20 06:09:54;;;;;;;;;;;;;;;;;;5064394;28;19929;-75
2023/10/20 06:12:21;;;;;;;;;;;;;;;;;;5053673;28;19959;-75
2023/10/20 06:14:48;;;;;;;;;;;;;;;;;;5053974;28;19925;-75
2023/10/20 06:17:18;;;;;;;;;;;;;;;;;;5052829;28;19925;-74
2023/10/20 06:19:46;;;;;;;;;;;;;;;;;;5038978;28;19925;-74
2023/10/20 06:22:13;;;;;;;;;;;;;;;;;;5045024;28;19941;-75
2023/10/20 06:24:40;;;;;;;;;;;;;;;;;;5039560;28;19952;-78
2023/10/20 06:27:07;;;;;;;;;;;;;;;;;;5033844;28;20354;-76
2023/10/20 06:29:46;;;;;;;;;;;;;;;;;;5043535;28;19952;-74
2023/10/20 06:32:22;;;;;;;;;;;;;;;;;;5047781;28;19933;-74
2023/10/20 06:34:51;;;;;;;;;;;;;;;;;;5052951;28;20391;-74
2023/10/20 06:37:25;;;;;;;;;;;;;;;;;;5052908;28;19935;-73
2023/10/20 06:39:52;;;;;;;;;;;;;;;;;;5038747;28;19960;-73
2023/10/20 06:42:19;;;;;;;;;;;;;;;;;;5051474;28;19964;-73
2023/10/20 06:44:46;;;;;;;;;;;;;;;;;;5046152;28;19964;-73
2023/10/20 06:47:13;;;;;;;;;;;;;;;;;;5045103;28;20070;-73
2023/10/20 06:49:42;;;;;;;;;;;;;;;;;;5043492;28;19932;-73
2023/10/20 06:52:09;;;;;;;;;;;;;;;;;;5039028;28;19925;-73
2023/10/20 06:54:36;;;;;;;;;;;;;;;;;;5050860;28;19928;-73
2023/10/20 06:57:03;;;;;;;;;;;;;;;;;;5047739;28;20353;-74
2023/10/20 06:59:30;;;;;;;;;;;;;;;;;;5045675;28;20303;-74
2023/10/20 07:02:00;;;;;;;;;;;;;;;;;;5040505;28;19976;-74
2023/10/20 07:04:27;;;;;;;;;;;;;;;;;;5042281;28;19925;-74
2023/10/20 07:06:54;;;;;;;;;;;;;;;;;;5045456;28;19936;-75
2023/10/20 07:09:21;;;;;;;;;;;;;;;;;;5047863;28;19933;-74
2023/10/20 07:11:49;;;;;;;;;;;;;;;;;;5046621;28;19975;-73
2023/10/20 07:14:16;;;;;;;;;;;;;;;;;;5047512;28;19931;-74
2023/10/20 07:16:43;;;;;;;;;;;;;;;;;;5048896;28;19929;-75
2023/10/20 07:19:10;;;;;;;;;;;;;;;;;;5048582;28;20368;-74
2023/10/20 07:21:37;;;;;;;;;;;;;;;;;;5050279;28;19925;-75
2023/10/20 07:24:04;;;;;;;;;;;;;;;;;;5047425;28;19929;-75
2023/10/20 07:26:31;;;;;;;;;;;;;;;;;;5052948;28;19995;-74
2023/10/20 07:28:58;;;;;;;;;;;;;;;;;;5055525;28;19925;-73
2023/10/20 07:31:26;;;;;;;;;;;;;;;;;;5057865;28;19971;-74
2023/10/20 07:33:53;;;;;;;;;;;;;;;;;;5050189;28;20384;-73
2023/10/20 07:36:20;;;;;;;;;;;;;;;;;;5048379;28;19924;-73
2023/10/20 07:38:47;;;;;;;;;;;;;;;;;;5047422;28;19986;-73
2023/10/20 07:41:14;;;;;;;;;;;;;;;;;;5041909;28;19929;-73
2023/10/20 07:43:41;;;;;;;;;;;;;;;;;;5041101;28;19928;-74
2023/10/20 07:46:08;;;;;;;;;;;;;;;;;;5044606;28;19964;-74
2023/10/20 07:48:35;;;;;;;;;;;;;;;;;;5042456;28;19982;-74
2023/10/20 07:51:02;;;;;;;;;;;;;;;;;;5043883;28;20383;-72
2023/10/20 07:53:30;;;;;;;;;;;;;;;;;;5040665;28;19940;-72
2023/10/20 07:55:57;;;;;;;;;;;;;;;;;;5044326;28;19948;-74
2023/10/20 07:58:24;;;;;;;;;;;;;;;;;;5045733;28;20273;-74
2023/10/20 08:00:51;;;;;;;;;;;;;;;;;;5043239;28;19964;-74
2023/10/20 08:03:18;;;;;;;;;;;;;;;;;;5046197;28;20016;-75
2023/10/20 08:05:45;;;;;;;;;;;;;;;;;;5043064;28;19929;-74
2023/10/20 08:08:12;;;;;;;;;;;;;;;;;;5045536;28;19925;-74
2023/10/20 08:10:39;;;;;;;;;;;;;;;;;;5043403;28;19947;-74
2023/10/20 08:13:06;;;;;;;;;;;;;;;;;;5043111;28;19925;-75
2023/10/20 08:15:34;;;;;;;;;;;;;;;;;;5046867;28;20008;-75
2023/10/20 08:18:01;;;;;;;;;;;;;;;;;;5045777;28;20035;-75
2023/10/20 08:20:29;;;;;;;;;;;;;;;;;;5045316;28;20015;-75
2023/10/20 08:22:56;;;;;;;;;;;;;;;;;;5046290;28;19935;-74
2023/10/20 08:25:23;;;;;;;;;;;;;;;;;;5041301;28;19925;-75
2023/10/20 08:27:50;;;;;;;;;;;;;;;;;;5044845;28;20288;-75
2023/10/20 08:30:18;;;;;;;;;;;;;;;;;;5045429;28;19978;-75
2023/10/20 08:32:45;;;;;;;;;;;;;;;;;;5046317;28;20019;-75
2023/10/20 08:35:14;;;;;;;;;;;;;;;;;;5045771;28;19925;-75
2023/10/20 08:37:41;;;;;;;;;;;;;;;;;;5051155;28;20026;-74
2023/10/20 08:40:10;;;;;;;;;;;;;;;;;;5050721;28;19924;-75
2023/10/20 08:42:38;;;;;;;;;;;;;;;;;;5047951;28;19925;-74
2023/10/20 08:45:05;;;;;;;;;;;;;;;;;;5052118;28;19928;-74
2023/10/20 08:47:32;;;;;;;;;;;;;;;;;;5050180;28;19925;-75
2023/10/20 08:49:59;;;;;;;;;;;;;;;;;;5050502;28;20003;-75
2023/10/20 08:52:26;;;;;;;;;;;;;;;;;;5042595;28;19924;-74
2023/10/20 08:54:53;;;;;;;;;;;;;;;;;;5051468;28;19968;-74
2023/10/20 08:57:20;;;;;;;;;;;;;;;;;;5050480;28;19933;-74
2023/10/20 08:59:47;;;;;;;;;;;;;;;;;;5048884;28;20307;-74
2023/10/20 09:02:14;;;;;;;;;;;;;;;;;;5048999;28;19932;-75
2023/10/20 09:04:41;;;;;;;;;;;;;;;;;;5052968;28;19998;-74
2023/10/20 09:07:08;;;;;;;;;;;;;;;;;;5050596;28;19932;-74
2023/10/20 09:09:35;;;;;;;;;;;;;;;;;;5049060;28;20024;-74
2023/10/20 09:12:03;;;;;;;;;;;;;;;;;;5056349;28;19925;-74
2023/10/20 09:14:30;;;;;;;;;;;;;;;;;;5049883;28;19932;-73
2023/10/20 09:16:59;;;;;;;;;;;;;;;;;;5047644;28;20015;-73
2023/10/20 09:19:26;;;;;;;;;;;;;;;;;;5051899;28;20320;-72
2023/10/20 09:21:57;;;;;;;;;;;;;;;;;;5038495;28;19925;-71
2023/10/20 09:24:24;;;;;;;;;;;;;;;;;;5051830;28;19925;-73
2023/10/20 09:26:51;;;;;;;;;;;;;;;;;;5054323;28;19925;-73
2023/10/20 09:29:18;;;;;;;;;;;;;;;;;;5061670;28;20386;-75
2023/10/20 09:31:45;;;;;;;;;;;;;;;;;;5051571;28;19971;-73
2023/10/20 09:34:12;;;;;;;;;;;;;;;;;;5047394;28;19960;-72
2023/10/20 09:36:39;;;;;;;;;;;;;;;;;;5051734;28;19956;-73
2023/10/20 09:39:08;;;;;;;;;;;;;;;;;;5053424;28;19975;-73
2023/10/20 09:41:35;;;;;;;;;;;;;;;;;;5052132;28;20357;-73
2023/10/20 09:44:02;;;;;;;;;;;;;;;;;;5052329;28;19924;-73
2023/10/20 09:46:28;;;;;;;;;;;;;;;;;;5053330;28;19971;-72
2023/10/20 09:48:55;;;;;;;;;;;;;;;;;;5051656;28;19932;-73
2023/10/20 09:51:22;;;;;;;;;;;;;;;;;;5051114;28;19925;-72
2023/10/20 09:53:49;;;;;;;;;;;;;;;;;;5047079;28;19966;-73
2023/10/20 09:56:16;;;;;;;;;;;;;;;;;;5052541;28;19929;-74
2023/10/20 09:58:43;;;;;;;;;;;;;;;;;;5053736;28;19925;-73
2023/10/20 10:01:10;;;;;;;;;;;;;;;;;;5049349;28;20442;-74
2023/10/20 10:03:40;;;;;;;;;;;;;;;;;;5051435;28;19936;-74
2023/10/20 10:06:07;;;;;;;;;;;;;;;;;;5052914;28;19964;-74
2023/10/20 10:08:34;;;;;;;;;;;;;;;;;;5042477;28;19924;-73
2023/10/20 10:11:03;;;;;;;;;;;;;;;;;;5050017;28;19924;-73
2023/10/20 10:13:30;;;;;;;;;;;;;;;;;;5047991;28;19928;-73
2023/10/20 10:15:58;;;;;;;;;;;;;;;;;;5049120;28;19982;-72
2023/10/20 10:18:25;;;;;;;;;;;;;;;;;;5048850;28;19924;-73
2023/10/20 10:20:52;;;;;;;;;;;;;;;;;;5051458;28;20311;-72
2023/10/20 10:23:20;;;;;;;;;;;;;;;;;;5055106;28;19925;-72
2023/10/20 10:25:48;;;;;;;;;;;;;;;;;;5047669;28;20028;-73
2023/10/20 10:28:15;;;;;;;;;;;;;;;;;;5050856;28;19924;-72
2023/10/20 10:30:42;;;;;;;;;;;;;;;;;;5047622;28;19986;-74
2023/10/20 10:33:09;;;;;;;;;;;;;;;;;;5045430;28;20333;-71
2023/10/20 10:35:38;;;;;;;;;;;;;;;;;;5049371;28;20016;-71
2023/10/20 10:38:06;;;;;;;;;;;;;;;;;;5050374;28;20467;-71
2023/10/20 10:40:34;;;;;;;;;;;;;;;;;;5048125;28;20062;-71
2023/10/20 10:43:01;;;;;;;;;;;;;;;;;;5048730;28;20022;-71
2023/10/20 10:45:30;;;;;;;;;;;;;;;;;;5050310;28;20445;-71
2023/10/20 10:47:57;;;;;;;;;;;;;;;;;;5047371;28;20414;-72
2023/10/20 10:50:24;;;;;;;;;;;;;;;;;;5048674;28;19982;-72
2023/10/20 10:52:51;;;;;;;;;;;;;;;;;;5051782;28;20440;-72
2023/10/20 10:55:18;;;;;;;;;;;;;;;;;;5046470;28;19929;-72
2023/10/20 10:57:45;;;;;;;;;;;;;;;;;;5048773;28;20387;-72
2023/10/20 11:00:15;;;;;;;;;;;;;;;;;;5046797;28;20042;-72
2023/10/20 11:02:42;;;;;;;;;;;;;;;;;;5049390;28;19978;-72
2023/10/20 11:05:09;;;;;;;;;;;;;;;;;;5049590;28;21277;-72
2023/10/20 11:07:36;;;;;;;;;;;;;;;;;;5051623;28;20383;-72
2023/10/20 11:10:04;;;;;;;;;;;;;;;;;;5043538;28;19986;-72
2023/10/20 11:12:31;;;;;;;;;;;;;;;;;;5053245;28;20268;-72
2023/10/20 11:14:58;;;;;;;;;;;;;;;;;;5057539;28;19925;-71
2023/10/20 11:17:25;;;;;;;;;;;;;;;;;;5050694;28;19947;-72
2023/10/20 11:19:52;;;;;;;;;;;;;;;;;;5049372;28;19924;-72
2023/10/20 11:22:19;;;;;;;;;;;;;;;;;;5051534;28;19976;-73
2023/10/20 11:24:46;;;;;;;;;;;;;;;;;;5050178;28;20005;-72
2023/10/20 11:27:13;;;;;;;;;;;;;;;;;;5037173;28;19960;-73
2023/10/20 11:29:42;;;;;;;;;;;;;;;;;;5047372;28;19940;-72
2023/10/20 11:32:09;;;;;;;;;;;;;;;;;;5049449;28;19925;-73
2023/10/20 11:34:36;;;;;;;;;;;;;;;;;;5052188;28;19978;-73
2023/10/20 11:37:03;;;;;;;;;;;;;;;;;;5049631;28;19972;-73
2023/10/20 11:39:31;;;;;;;;;;;;;;;;;;5050185;28;20020;-73
2023/10/20 11:41:58;;;;;;;;;;;;;;;;;;5049979;28;19947;-72
2023/10/20 11:44:26;;;;;;;;;;;;;;;;;;5046041;28;20493;-73
2023/10/20 11:46:53;;;;;;;;;;;;;;;;;;5050835;28;20011;-73
2023/10/20 11:49:20;;;;;;;;;;;;;;;;;;5049761;28;20032;-73
2023/10/20 11:51:47;;;;;;;;;;;;;;;;;;5050876;28;19963;-73
2023/10/20 11:54:14;;;;;;;;;;;;;;;;;;5048834;28;19939;-72
2023/10/20 11:56:41;;;;;;;;;;;;;;;;;;5050119;28;19978;-73
2023/10/20 11:59:08;;;;;;;;;;;;;;;;;;5050008;28;19926;-73
2023/10/20 12:01:36;;;;;;;;;;;;;;;;;;5047913;28;19928;-73
2023/10/20 12:04:05;;;;;;;;;;;;;;;;;;5045571;28;19924;-72
2023/10/20 12:06:34;;;;;;;;;;;;;;;;;;5039490;28;19936;-73
2023/10/20 12:09:01;;;;;;;;;;;;;;;;;;5040188;28;19925;-72
2023/10/20 12:11:28;;;;;;;;;;;;;;;;;;5043360;28;19964;-73
2023/10/20 12:13:55;;;;;;;;;;;;;;;;;;5039730;28;20399;-72
2023/10/20 12:16:24;;;;;;;;;;;;;;;;;;5037715;28;19929;-72
2023/10/20 12:18:52;;;;;;;;;;;;;;;;;;5040921;28;19932;-73
2023/10/20 12:21:19;;;;;;;;;;;;;;;;;;5043039;28;19925;-73
2023/10/20 12:23:46;;;;;;;;;;;;;;;;;;5046408;28;19925;-72
2023/10/20 12:26:13;;;;;;;;;;;;;;;;;;5048914;28;19924;-74
2023/10/20 12:28:40;;;;;;;;;;;;;;;;;;5035917;28;19925;-72
2023/10/20 12:31:08;;;;;;;;;;;;;;;;;;5036156;28;19928;-72
2023/10/20 12:33:35;;;;;;;;;;;;;;;;;;5046160;28;19924;-73
2023/10/20 12:36:03;;;;;;;;;;;;;;;;;;5046343;28;19983;-73
2023/10/20 12:38:30;;;;;;;;;;;;;;;;;;5047137;28;19925;-73
2023/10/20 12:40:57;;;;;;;;;;;;;;;;;;5047493;28;20375;-73
2023/10/20 12:43:25;;;;;;;;;;;;;;;;;;5047366;28;19944;-72
2023/10/20 12:45:52;;;;;;;;;;;;;;;;;;5045249;28;19971;-77
2023/10/20 12:48:20;;;;;;;;;;;;;;;;;;5047827;28;19979;-76
2023/10/20 12:50:47;;;;;;;;;;;;;;;;;;5045089;28;19924;-77
2023/10/20 12:53:14;;;;;;;;;;;;;;;;;;5044454;28;19979;-75
2023/10/20 12:55:41;;;;;;;;;;;;;;;;;;5048080;28;19971;-76
2023/10/20 12:58:08;;;;;;;;;;;;;;;;;;5049820;28;20004;-76
2023/10/20 13:00:35;;;;;;;;;;;;;;;;;;5047726;28;20339;-76
2023/10/20 13:03:02;;;;;;;;;;;;;;;;;;5048513;28;19924;-76
2023/10/20 13:05:29;;;;;;;;;;;;;;;;;;5048441;28;19948;-76
2023/10/20 13:07:56;;;;;;;;;;;;;;;;;;5048125;28;19925;-75
2023/10/20 13:10:23;;;;;;;;;;;;;;;;;;5045250;28;20021;-77
2023/10/20 13:12:50;;;;;;;;;;;;;;;;;;5049676;28;19978;-75
2023/10/20 13:15:19;;;;;;;;;;;;;;;;;;5049970;28;19962;-76
2023/10/20 13:17:46;;;;;;;;;;;;;;;;;;5048903;28;20474;-76
2023/10/20 13:20:13;;;;;;;;;;;;;;;;;;5050913;28;19925;-75
2023/10/20 13:22:40;;;;;;;;;;;;;;;;;;5053643;28;19968;-74
2023/10/20 13:25:07;;;;;;;;;;;;;;;;;;5052019;28;19978;-71
2023/10/20 13:27:34;;;;;;;;;;;;;;;;;;5047388;28;19951;-73
2023/10/20 13:30:02;;;;;;;;;;;;;;;;;;5049764;28;20387;-72
2023/10/20 13:32:29;;;;;;;;;;;;;;;;;;5048914;28;19937;-70
2023/10/20 13:34:56;;;;;;;;;;;;;;;;;;5046649;28;20298;-73
2023/10/20 13:37:23;;;;;;;;;;;;;;;;;;5052094;28;20398;-71
2023/10/20 13:39:50;;;;;;;;;;;;;;;;;;5050530;28;20067;-72
2023/10/20 13:42:17;;;;;;;;;;;;;;;;;;5046195;28;19943;-72
2023/10/20 13:44:44;;;;;;;;;;;;;;;;;;5050876;28;19991;-72
2023/10/20 13:47:11;;;;;;;;;;;;;;;;;;5057913;28;19925;-72
2023/10/20 13:49:38;;;;;;;;;;;;;;;;;;5053574;28;19936;-73
2023/10/20 13:52:05;;;;;;;;;;;;;;;;;;5049063;28;20299;-74
2023/10/20 13:54:33;;;;;;;;;;;;;;;;;;5049402;28;20442;-72
2023/10/20 13:57:00;;;;;;;;;;;;;;;;;;5043813;28;19926;-72
2023/10/20 13:59:27;;;;;;;;;;;;;;;;;;5046841;28;19932;-72
2023/10/20 14:01:54;;;;;;;;;;;;;;;;;;5049992;28;19984;-71
2023/10/20 14:04:23;;;;;;;;;;;;;;;;;;5046431;28;19933;-72
2023/10/20 14:06:50;;;;;;;;;;;;;;;;;;5038848;28;20019;-71
2023/10/20 14:09:17;;;;;;;;;;;;;;;;;;5050415;28;20342;-71
2023/10/20 14:11:44;;;;;;;;;;;;;;;;;;5043259;28;19959;-72
2023/10/20 14:14:11;;;;;;;;;;;;;;;;;;5046421;28;19933;-72
2023/10/20 14:16:38;;;;;;;;;;;;;;;;;;5046364;28;20398;-73
2023/10/20 14:19:06;;;;;;;;;;;;;;;;;;5041421;28;19925;-72
2023/10/20 14:21:33;;;;;;;;;;;;;;;;;;5047921;28;19944;-73
2023/10/20 14:24:00;;;;;;;;;;;;;;;;;;5043860;28;20951;-72
2023/10/20 14:26:27;;;;;;;;;;;;;;;;;;5043200;28;19978;-72
2023/10/20 14:28:54;;;;;;;;;;;;;;;;;;5044608;28;19929;-71
2023/10/20 14:31:21;;;;;;;;;;;;;;;;;;5042780;28;19937;-73
2023/10/20 14:33:48;;;;;;;;;;;;;;;;;;5039530;28;20015;-76
2023/10/20 14:36:18;;;;;;;;;;;;;;;;;;5043469;28;19943;-72
2023/10/20 14:38:45;;;;;;;;;;;;;;;;;;5043200;28;20027;-73
2023/10/20 14:41:13;;;;;;;;;;;;;;;;;;5038903;28;20030;-72
2023/10/20 14:43:40;;;;;;;;;;;;;;;;;;5046128;28;20430;-72
2023/10/20 14:46:07;;;;;;;;;;;;;;;;;;5041959;28;19925;-72
2023/10/20 14:48:35;;;;;;;;;;;;;;;;;;5044731;28;19924;-72
2023/10/20 14:51:02;;;;;;;;;;;;;;;;;;5042220;28;20334;-72
2023/10/20 14:53:29;;;;;;;;;;;;;;;;;;5038727;28;19925;-72
2023/10/20 14:55:56;;;;;;;;;;;;;;;;;;5043056;28;20268;-72
2023/10/20 14:58:30;;;;;;;;;;;;;;;;;;5036112;28;20399;-73
2023/10/20 15:00:57;;;;;;;;;;;;;;;;;;5043013;28;20410;-71
2023/10/20 15:03:24;;;;;;;;;;;;;;;;;;5040764;28;20033;-73
2023/10/20 15:05:51;;;;;;;;;;;;;;;;;;5043384;28;20360;-72
2023/10/20 15:08:19;;;;;;;;;;;;;;;;;;5045286;28;19971;-72
2023/10/20 15:10:46;;;;;;;;;;;;;;;;;;5044020;28;20322;-72
2023/10/20 15:13:14;;;;;;;;;;;;;;;;;;5040907;28;20367;-73
2023/10/20 15:15:41;;;;;;;;;;;;;;;;;;5046419;28;19929;-73
2023/10/20 15:18:08;;;;;;;;;;;;;;;;;;5045653;28;20403;-73
2023/10/20 15:20:35;;;;;;;;;;;;;;;;;;5047604;28;19929;-73
2023/10/20 15:23:03;;;;;;;;;;;;;;;;;;5045055;28;19925;-72
2023/10/20 15:25:30;;;;;;;;;;;;;;;;;;5045554;28;19924;-70
2023/10/20 15:27:57;;;;;;;;;;;;;;;;;;5041029;28;20579;-70
2023/10/20 15:30:25;;;;;;;;;;;;;;;;;;5038514;28;19979;-70
2023/10/20 15:32:52;;;;;;;;;;;;;;;;;;5046673;28;19936;-70
2023/10/20 15:35:20;;;;;;;;;;;;;;;;;;5041171;28;19925;-69
2023/10/20 15:37:47;;;;;;;;;;;;;;;;;;5045228;28;19932;-70
2023/10/20 15:40:14;;;;;;;;;;;;;;;;;;5046121;28;20026;-70
2023/10/20 15:42:41;;;;;;;;;;;;;;;;;;5044260;28;20010;-70
2023/10/20 15:45:10;;;;;;;;;;;;;;;;;;5044492;28;19971;-73
2023/10/20 15:47:37;;;;;;;;;;;;;;;;;;5040796;28;19925;-72
2023/10/20 15:50:04;;;;;;;;;;;;;;;;;;5044593;28;19933;-72
2023/10/20 15:52:31;;;;;;;;;;;;;;;;;;5039886;28;20481;-73
2023/10/20 15:55:01;;;;;;;;;;;;;;;;;;5047589;28;19979;-72
2023/10/20 15:57:28;;;;;;;;;;;;;;;;;;5041718;28;20455;-71
2023/10/20 15:59:55;;;;;;;;;;;;;;;;;;5046525;28;19978;-72
2023/10/20 16:02:22;;;;;;;;;;;;;;;;;;5049409;28;19979;-71
2023/10/20 16:04:49;;;;;;;;;;;;;;;;;;5042776;28;20050;-73
2023/10/20 16:07:16;;;;;;;;;;;;;;;;;;5047369;28;20058;-73
2023/10/20 16:09:43;;;;;;;;;;;;;;;;;;5039615;28;19932;-73
2023/10/20 16:12:10;;;;;;;;;;;;;;;;;;5048749;28;19925;-74
2023/10/20 16:14:37;;;;;;;;;;;;;;;;;;5047182;28;19968;-74
2023/10/20 16:17:04;;;;;;;;;;;;;;;;;;5047318;28;19929;-75
2023/10/20 16:19:31;;;;;;;;;;;;;;;;;;5047900;28;19925;-76
2023/10/20 16:21:59;;;;;;;;;;;;;;;;;;5045903;28;20015;-74
2023/10/20 16:24:26;;;;;;;;;;;;;;;;;;5040635;28;19952;-74
2023/10/20 16:26:53;;;;;;;;;;;;;;;;;;5044731;28;19925;-75
2023/10/20 16:29:20;;;;;;;;;;;;;;;;;;5041925;28;19925;-74
2023/10/20 16:31:47;;;;;;;;;;;;;;;;;;5047206;28;20409;-73
2023/10/20 16:34:15;;;;;;;;;;;;;;;;;;5047487;28;19932;-72
2023/10/20 16:36:42;;;;;;;;;;;;;;;;;;5046720;28;19932;-73
2023/10/20 16:39:12;;;;;;;;;;;;;;;;;;5036724;28;20345;-74
2023/10/20 16:41:39;;;;;;;;;;;;;;;;;;5044424;28;19925;-73
2023/10/20 16:44:06;;;;;;;;;;;;;;;;;;5046229;28;22741;-73
2023/10/20 16:46:33;;;;;;;;;;;;;;;;;;5041554;28;19925;-76
2023/10/20 16:49:02;;;;;;;;;;;;;;;;;;5040922;28;19928;-72
2023/10/20 16:51:29;;;;;;;;;;;;;;;;;;5047905;28;19925;-73
2023/10/20 16:53:56;;;;;;;;;;;;;;;;;;5043474;28;20020;-74
2023/10/20 16:56:23;;;;;;;;;;;;;;;;;;5048139;28;19925;-74
2023/10/20 16:58:50;;;;;;;;;;;;;;;;;;5048349;28;20006;-74
2023/10/20 17:01:17;;;;;;;;;;;;;;;;;;5046636;28;19924;-73
2023/10/20 17:03:44;;;;;;;;;;;;;;;;;;5046265;28;19925;-74
2023/10/20 17:06:12;;;;;;;;;;;;;;;;;;5048986;28;19925;-73
2023/10/20 17:08:39;;;;;;;;;;;;;;;;;;5051883;28;19978;-74
2023/10/20 17:11:06;;;;;;;;;;;;;;;;;;5050283;28;19924;-75
2023/10/20 17:13:33;;;;;;;;;;;;;;;;;;5047518;28;19937;-74
2023/10/20 17:16:00;;;;;;;;;;;;;;;;;;5046522;28;20067;-73
2023/10/20 17:18:27;;;;;;;;;;;;;;;;;;5040027;28;20006;-73